sensor_id;sensor_type;location;lat;lon;timestamp;P1;durP1;ratioP1;P2;durP2;ratioP2
19879;SDS011;10102;50.828;4.416;2023-03-21T00:02:03;16.85;;;6.78;;
19879;SDS011;10102;50.828;4.416;2023-03-21T00:04:29;9.48;;;5.65;;
19879;SDS011;10102;50.828;4.416;2023-03-21T00:06:55;12.65;;;5.65;;
19879;SDS011;10102;50.828;4.416;2023-03-21T00:09:21;11.90;;;5.25;;
19879;SDS011;10102;50.828;4.416;2023-03-21T00:11:47;12.27;;;6.15;;
19879;SDS011;10102;50.828;4.416;2023-03-21T00:14:14;17.73;;;5.60;;
19879;SDS011;10102;50.828;4.416;2023-03-21T00:16:44;11.32;;;5.78;;
19879;SDS011;10102;50.828;4.416;2023-03-21T00:19:14;15.18;;;5.68;;
19879;SDS011;10102;50.828;4.416;2023-03-21T00:21:41;18.13;;;6.13;;
19879;SDS011;10102;50.828;4.416;2023-03-21T00:24:08;12.60;;;5.53;;
19879;SDS011;10102;50.828;4.416;2023-03-21T00:26:34;15.07;;;6.15;;
19879;SDS011;10102;50.828;4.416;2023-03-21T00:29:00;13.50;;;5.38;;
19879;SDS011;10102;50.828;4.416;2023-03-21T00:31:25;15.05;;;6.43;;
19879;SDS011;10102;50.828;4.416;2023-03-21T00:33:51;15.98;;;5.68;;
19879;SDS011;10102;50.828;4.416;2023-03-21T00:36:17;13.32;;;5.78;;
19879;SDS011;10102;50.828;4.416;2023-03-21T00:38:43;15.32;;;5.57;;
19879;SDS011;10102;50.828;4.416;2023-03-21T00:41:09;12.95;;;5.65;;
19879;SDS011;10102;50.828;4.416;2023-03-21T00:43:38;13.77;;;5.18;;
19879;SDS011;10102;50.828;4.416;2023-03-21T00:46:04;18.75;;;4.95;;
19879;SDS011;10102;50.828;4.416;2023-03-21T00:48:31;11.05;;;5.05;;
19879;SDS011;10102;50.828;4.416;2023-03-21T00:50:56;12.57;;;4.88;;
19879;SDS011;10102;50.828;4.416;2023-03-21T00:53:23;13.93;;;4.70;;
19879;SDS011;10102;50.828;4.416;2023-03-21T00:55:49;13.10;;;4.82;;
19879;SDS011;10102;50.828;4.416;2023-03-21T00:58:15;14.13;;;4.82;;
19879;SDS011;10102;50.828;4.416;2023-03-21T01:00:41;12.82;;;5.53;;
19879;SDS011;10102;50.828;4.416;2023-03-21T01:03:09;11.27;;;4.47;;
19879;SDS011;10102;50.828;4.416;2023-03-21T01:05:37;12.65;;;4.80;;
19879;SDS011;10102;50.828;4.416;2023-03-21T01:08:24;8.68;;;4.55;;
19879;SDS011;10102;50.828;4.416;2023-03-21T01:10:52;8.95;;;4.72;;
19879;SDS011;10102;50.828;4.416;2023-03-21T01:13:18;10.90;;;4.70;;
19879;SDS011;10102;50.828;4.416;2023-03-21T01:15:47;9.43;;;4.53;;
19879;SDS011;10102;50.828;4.416;2023-03-21T01:18:15;13.32;;;4.68;;
19879;SDS011;10102;50.828;4.416;2023-03-21T01:20:42;7.95;;;4.63;;
19879;SDS011;10102;50.828;4.416;2023-03-21T01:23:09;18.48;;;5.00;;
19879;SDS011;10102;50.828;4.416;2023-03-21T01:25:37;13.30;;;4.93;;
19879;SDS011;10102;50.828;4.416;2023-03-21T01:28:03;13.82;;;4.88;;
19879;SDS011;10102;50.828;4.416;2023-03-21T01:30:29;13.85;;;5.13;;
19879;SDS011;10102;50.828;4.416;2023-03-21T01:32:55;12.60;;;4.72;;
19879;SDS011;10102;50.828;4.416;2023-03-21T01:35:21;10.30;;;4.53;;
19879;SDS011;10102;50.828;4.416;2023-03-21T01:37:47;14.13;;;4.53;;
19879;SDS011;10102;50.828;4.416;2023-03-21T01:40:15;12.90;;;4.97;;
19879;SDS011;10102;50.828;4.416;2023-03-21T01:42:42;14.30;;;5.03;;
19879;SDS011;10102;50.828;4.416;2023-03-21T01:48:11;12.75;;;4.40;;
19879;SDS011;10102;50.828;4.416;2023-03-21T01:50:38;8.48;;;4.68;;
19879;SDS011;10102;50.828;4.416;2023-03-21T01:53:06;11.20;;;4.70;;
19879;SDS011;10102;50.828;4.416;2023-03-21T01:55:31;15.30;;;5.28;;
19879;SDS011;10102;50.828;4.416;2023-03-21T01:57:58;18.73;;;5.15;;
19879;SDS011;10102;50.828;4.416;2023-03-21T02:00:27;15.00;;;5.18;;
19879;SDS011;10102;50.828;4.416;2023-03-21T02:02:55;13.90;;;5.15;;
19879;SDS011;10102;50.828;4.416;2023-03-21T02:05:36;18.45;;;5.05;;
19879;SDS011;10102;50.828;4.416;2023-03-21T02:08:08;16.30;;;5.32;;
19879;SDS011;10102;50.828;4.416;2023-03-21T02:10:33;23.52;;;4.80;;
19879;SDS011;10102;50.828;4.416;2023-03-21T02:13:01;8.93;;;4.63;;
19879;SDS011;10102;50.828;4.416;2023-03-21T02:15:34;12.90;;;4.93;;
19879;SDS011;10102;50.828;4.416;2023-03-21T02:31:44;11.65;;;4.60;;
19879;SDS011;10102;50.828;4.416;2023-03-21T02:34:23;17.33;;;4.50;;
19879;SDS011;10102;50.828;4.416;2023-03-21T02:42:42;11.65;;;3.92;;
19879;SDS011;10102;50.828;4.416;2023-03-21T02:45:20;13.55;;;4.10;;
19879;SDS011;10102;50.828;4.416;2023-03-21T02:47:54;15.90;;;3.97;;
19879;SDS011;10102;50.828;4.416;2023-03-21T02:50:25;12.52;;;3.95;;
19879;SDS011;10102;50.828;4.416;2023-03-21T02:52:56;9.57;;;3.60;;
19879;SDS011;10102;50.828;4.416;2023-03-21T02:55:25;9.23;;;3.50;;
19879;SDS011;10102;50.828;4.416;2023-03-21T02:57:55;9.68;;;3.65;;
19879;SDS011;10102;50.828;4.416;2023-03-21T03:00:23;11.00;;;3.58;;
19879;SDS011;10102;50.828;4.416;2023-03-21T03:02:55;13.27;;;3.50;;
19879;SDS011;10102;50.828;4.416;2023-03-21T03:05:22;8.13;;;3.17;;
19879;SDS011;10102;50.828;4.416;2023-03-21T03:07:53;9.40;;;3.33;;
19879;SDS011;10102;50.828;4.416;2023-03-21T03:11:04;11.20;;;3.35;;
19879;SDS011;10102;50.828;4.416;2023-03-21T03:13:21;11.45;;;3.45;;
19879;SDS011;10102;50.828;4.416;2023-03-21T03:18:58;9.93;;;3.10;;
19879;SDS011;10102;50.828;4.416;2023-03-21T03:24:13;8.40;;;3.33;;
19879;SDS011;10102;50.828;4.416;2023-03-21T03:26:50;9.55;;;3.60;;
19879;SDS011;10102;50.828;4.416;2023-03-21T03:29:21;10.43;;;3.63;;
19879;SDS011;10102;50.828;4.416;2023-03-21T03:32:00;10.13;;;5.03;;
19879;SDS011;10102;50.828;4.416;2023-03-21T03:34:34;6.95;;;3.67;;
19879;SDS011;10102;50.828;4.416;2023-03-21T03:37:05;7.90;;;3.53;;
19879;SDS011;10102;50.828;4.416;2023-03-21T03:39:36;15.68;;;4.75;;
19879;SDS011;10102;50.828;4.416;2023-03-21T03:42:14;9.35;;;4.03;;
19879;SDS011;10102;50.828;4.416;2023-03-21T03:44:45;11.55;;;3.85;;
19879;SDS011;10102;50.828;4.416;2023-03-21T03:47:15;9.93;;;3.95;;
19879;SDS011;10102;50.828;4.416;2023-03-21T03:49:55;12.38;;;4.70;;
19879;SDS011;10102;50.828;4.416;2023-03-21T03:52:46;10.43;;;4.20;;
19879;SDS011;10102;50.828;4.416;2023-03-21T03:55:16;10.63;;;4.10;;
19879;SDS011;10102;50.828;4.416;2023-03-21T03:57:45;12.38;;;4.40;;
19879;SDS011;10102;50.828;4.416;2023-03-21T04:00:12;10.60;;;4.15;;
19879;SDS011;10102;50.828;4.416;2023-03-21T04:02:40;11.05;;;3.70;;
19879;SDS011;10102;50.828;4.416;2023-03-21T04:05:06;8.43;;;3.88;;
19879;SDS011;10102;50.828;4.416;2023-03-21T04:07:31;13.25;;;4.57;;
19879;SDS011;10102;50.828;4.416;2023-03-21T04:09:57;12.07;;;4.60;;
19879;SDS011;10102;50.828;4.416;2023-03-21T04:12:23;11.23;;;4.85;;
19879;SDS011;10102;50.828;4.416;2023-03-21T04:14:49;16.63;;;5.13;;
19879;SDS011;10102;50.828;4.416;2023-03-21T04:17:15;12.52;;;4.70;;
19879;SDS011;10102;50.828;4.416;2023-03-21T04:19:42;14.20;;;4.78;;
19879;SDS011;10102;50.828;4.416;2023-03-21T04:22:09;13.40;;;5.82;;
19879;SDS011;10102;50.828;4.416;2023-03-21T04:24:36;14.85;;;5.22;;
19879;SDS011;10102;50.828;4.416;2023-03-21T04:27:03;15.95;;;5.22;;
19879;SDS011;10102;50.828;4.416;2023-03-21T04:29:30;15.38;;;5.43;;
19879;SDS011;10102;50.828;4.416;2023-03-21T04:31:56;18.77;;;5.20;;
19879;SDS011;10102;50.828;4.416;2023-03-21T04:34:22;17.40;;;5.22;;
19879;SDS011;10102;50.828;4.416;2023-03-21T04:36:54;15.90;;;6.70;;
19879;SDS011;10102;50.828;4.416;2023-03-21T04:39:20;22.27;;;6.53;;
19879;SDS011;10102;50.828;4.416;2023-03-21T04:41:48;13.73;;;5.53;;
19879;SDS011;10102;50.828;4.416;2023-03-21T04:44:14;17.27;;;5.68;;
19879;SDS011;10102;50.828;4.416;2023-03-21T04:46:41;9.75;;;5.57;;
19879;SDS011;10102;50.828;4.416;2023-03-21T04:49:07;16.50;;;6.57;;
19879;SDS011;10102;50.828;4.416;2023-03-21T04:51:33;14.15;;;5.43;;
19879;SDS011;10102;50.828;4.416;2023-03-21T04:53:59;14.07;;;6.50;;
19879;SDS011;10102;50.828;4.416;2023-03-21T04:56:25;18.25;;;6.00;;
19879;SDS011;10102;50.828;4.416;2023-03-21T04:58:57;15.63;;;6.65;;
19879;SDS011;10102;50.828;4.416;2023-03-21T05:01:24;15.75;;;6.30;;
19879;SDS011;10102;50.828;4.416;2023-03-21T05:03:55;16.45;;;6.78;;
19879;SDS011;10102;50.828;4.416;2023-03-21T05:06:25;13.32;;;5.90;;
19879;SDS011;10102;50.828;4.416;2023-03-21T05:08:52;11.25;;;5.85;;
19879;SDS011;10102;50.828;4.416;2023-03-21T05:11:18;12.68;;;6.07;;
19879;SDS011;10102;50.828;4.416;2023-03-21T05:13:44;21.45;;;6.90;;
19879;SDS011;10102;50.828;4.416;2023-03-21T05:16:10;17.63;;;5.88;;
19879;SDS011;10102;50.828;4.416;2023-03-21T05:18:36;15.82;;;6.43;;
19879;SDS011;10102;50.828;4.416;2023-03-21T05:21:03;16.60;;;6.15;;
19879;SDS011;10102;50.828;4.416;2023-03-21T05:23:31;13.23;;;6.65;;
19879;SDS011;10102;50.828;4.416;2023-03-21T05:26:03;15.70;;;6.50;;
19879;SDS011;10102;50.828;4.416;2023-03-21T05:28:33;23.52;;;6.47;;
19879;SDS011;10102;50.828;4.416;2023-03-21T05:31:03;18.05;;;6.40;;
19879;SDS011;10102;50.828;4.416;2023-03-21T05:33:30;14.02;;;5.90;;
19879;SDS011;10102;50.828;4.416;2023-03-21T05:35:56;14.55;;;5.68;;
19879;SDS011;10102;50.828;4.416;2023-03-21T05:38:22;10.73;;;6.05;;
19879;SDS011;10102;50.828;4.416;2023-03-21T05:40:49;16.55;;;5.70;;
19879;SDS011;10102;50.828;4.416;2023-03-21T05:43:15;17.63;;;6.68;;
19879;SDS011;10102;50.828;4.416;2023-03-21T05:45:41;22.25;;;6.53;;
19879;SDS011;10102;50.828;4.416;2023-03-21T05:48:07;12.13;;;5.63;;
19879;SDS011;10102;50.828;4.416;2023-03-21T05:50:37;16.48;;;5.70;;
19879;SDS011;10102;50.828;4.416;2023-03-21T05:53:03;9.98;;;5.38;;
19879;SDS011;10102;50.828;4.416;2023-03-21T05:55:29;10.63;;;5.15;;
19879;SDS011;10102;50.828;4.416;2023-03-21T05:57:54;11.95;;;5.78;;
19879;SDS011;10102;50.828;4.416;2023-03-21T06:00:21;15.88;;;6.13;;
19879;SDS011;10102;50.828;4.416;2023-03-21T06:02:53;13.70;;;5.78;;
19879;SDS011;10102;50.828;4.416;2023-03-21T06:05:18;19.80;;;6.40;;
19879;SDS011;10102;50.828;4.416;2023-03-21T06:07:44;16.40;;;5.40;;
19879;SDS011;10102;50.828;4.416;2023-03-21T06:10:10;15.20;;;6.22;;
19879;SDS011;10102;50.828;4.416;2023-03-21T06:12:36;11.18;;;5.90;;
19879;SDS011;10102;50.828;4.416;2023-03-21T06:15:04;15.60;;;6.78;;
19879;SDS011;10102;50.828;4.416;2023-03-21T06:17:32;14.10;;;7.00;;
19879;SDS011;10102;50.828;4.416;2023-03-21T06:19:59;12.40;;;6.95;;
19879;SDS011;10102;50.828;4.416;2023-03-21T06:22:25;13.77;;;6.30;;
19879;SDS011;10102;50.828;4.416;2023-03-21T06:24:53;13.27;;;6.10;;
19879;SDS011;10102;50.828;4.416;2023-03-21T06:27:18;18.05;;;6.68;;
19879;SDS011;10102;50.828;4.416;2023-03-21T06:29:44;21.40;;;7.13;;
19879;SDS011;10102;50.828;4.416;2023-03-21T06:32:11;17.92;;;6.55;;
19879;SDS011;10102;50.828;4.416;2023-03-21T06:34:37;18.13;;;6.70;;
19879;SDS011;10102;50.828;4.416;2023-03-21T06:37:03;14.25;;;6.10;;
19879;SDS011;10102;50.828;4.416;2023-03-21T06:39:29;20.95;;;6.32;;
19879;SDS011;10102;50.828;4.416;2023-03-21T06:41:57;16.00;;;6.80;;
19879;SDS011;10102;50.828;4.416;2023-03-21T06:44:22;9.82;;;5.57;;
19879;SDS011;10102;50.828;4.416;2023-03-21T06:46:49;10.00;;;5.00;;
19879;SDS011;10102;50.828;4.416;2023-03-21T06:49:15;19.60;;;6.40;;
19879;SDS011;10102;50.828;4.416;2023-03-21T06:51:41;16.90;;;5.65;;
19879;SDS011;10102;50.828;4.416;2023-03-21T06:54:07;12.13;;;5.38;;
19879;SDS011;10102;50.828;4.416;2023-03-21T06:56:33;9.90;;;4.80;;
19879;SDS011;10102;50.828;4.416;2023-03-21T06:58:59;12.68;;;5.75;;
19879;SDS011;10102;50.828;4.416;2023-03-21T07:01:24;8.18;;;4.70;;
19879;SDS011;10102;50.828;4.416;2023-03-21T07:03:53;7.05;;;4.35;;
19879;SDS011;10102;50.828;4.416;2023-03-21T07:06:20;10.05;;;4.55;;
19879;SDS011;10102;50.828;4.416;2023-03-21T07:08:46;10.95;;;4.53;;
19879;SDS011;10102;50.828;4.416;2023-03-21T07:11:12;11.23;;;4.70;;
19879;SDS011;10102;50.828;4.416;2023-03-21T07:13:38;17.08;;;5.53;;
19879;SDS011;10102;50.828;4.416;2023-03-21T07:16:04;14.82;;;4.72;;
19879;SDS011;10102;50.828;4.416;2023-03-21T07:18:33;8.70;;;3.85;;
19879;SDS011;10102;50.828;4.416;2023-03-21T07:20:58;9.32;;;4.25;;
19879;SDS011;10102;50.828;4.416;2023-03-21T07:23:25;7.35;;;3.75;;
19879;SDS011;10102;50.828;4.416;2023-03-21T07:25:51;9.93;;;3.45;;
19879;SDS011;10102;50.828;4.416;2023-03-21T07:28:17;10.82;;;3.95;;
19879;SDS011;10102;50.828;4.416;2023-03-21T07:30:45;10.13;;;3.05;;
19879;SDS011;10102;50.828;4.416;2023-03-21T07:33:17;9.77;;;3.63;;
19879;SDS011;10102;50.828;4.416;2023-03-21T07:35:42;6.47;;;3.25;;
19879;SDS011;10102;50.828;4.416;2023-03-21T07:38:09;11.18;;;3.28;;
19879;SDS011;10102;50.828;4.416;2023-03-21T07:40:35;7.53;;;3.00;;
19879;SDS011;10102;50.828;4.416;2023-03-21T07:43:00;7.40;;;2.95;;
19879;SDS011;10102;50.828;4.416;2023-03-21T07:45:26;7.43;;;3.03;;
19879;SDS011;10102;50.828;4.416;2023-03-21T07:47:53;7.18;;;2.38;;
19879;SDS011;10102;50.828;4.416;2023-03-21T07:50:19;8.48;;;3.08;;
19879;SDS011;10102;50.828;4.416;2023-03-21T07:52:45;7.78;;;2.58;;
19879;SDS011;10102;50.828;4.416;2023-03-21T07:55:11;8.27;;;2.72;;
19879;SDS011;10102;50.828;4.416;2023-03-21T07:57:38;5.70;;;3.20;;
19879;SDS011;10102;50.828;4.416;2023-03-21T08:00:04;5.18;;;2.65;;
19879;SDS011;10102;50.828;4.416;2023-03-21T08:02:31;5.55;;;2.88;;
19879;SDS011;10102;50.828;4.416;2023-03-21T08:04:56;9.88;;;3.42;;
19879;SDS011;10102;50.828;4.416;2023-03-21T08:07:22;5.32;;;3.25;;
19879;SDS011;10102;50.828;4.416;2023-03-21T08:09:48;7.28;;;3.22;;
19879;SDS011;10102;50.828;4.416;2023-03-21T08:12:14;10.38;;;3.67;;
19879;SDS011;10102;50.828;4.416;2023-03-21T08:14:40;10.55;;;3.28;;
19879;SDS011;10102;50.828;4.416;2023-03-21T08:17:06;6.80;;;3.60;;
19879;SDS011;10102;50.828;4.416;2023-03-21T08:19:33;10.00;;;4.03;;
19879;SDS011;10102;50.828;4.416;2023-03-21T08:22:00;9.85;;;3.70;;
19879;SDS011;10102;50.828;4.416;2023-03-21T08:24:26;5.88;;;3.15;;
19879;SDS011;10102;50.828;4.416;2023-03-21T08:26:53;10.00;;;3.95;;
19879;SDS011;10102;50.828;4.416;2023-03-21T08:29:19;8.88;;;3.83;;
19879;SDS011;10102;50.828;4.416;2023-03-21T08:31:45;9.02;;;3.45;;
19879;SDS011;10102;50.828;4.416;2023-03-21T08:34:11;9.15;;;3.55;;
19879;SDS011;10102;50.828;4.416;2023-03-21T08:36:37;11.85;;;3.95;;
19879;SDS011;10102;50.828;4.416;2023-03-21T08:39:03;7.53;;;3.90;;
19879;SDS011;10102;50.828;4.416;2023-03-21T08:41:33;11.88;;;3.88;;
19879;SDS011;10102;50.828;4.416;2023-03-21T08:44:01;7.82;;;3.90;;
19879;SDS011;10102;50.828;4.416;2023-03-21T08:46:28;10.57;;;4.03;;
19879;SDS011;10102;50.828;4.416;2023-03-21T08:48:54;12.32;;;3.83;;
19879;SDS011;10102;50.828;4.416;2023-03-21T08:51:19;8.77;;;4.57;;
19879;SDS011;10102;50.828;4.416;2023-03-21T08:53:45;8.75;;;3.40;;
19879;SDS011;10102;50.828;4.416;2023-03-21T08:56:13;10.32;;;3.65;;
19879;SDS011;10102;50.828;4.416;2023-03-21T08:58:39;10.00;;;4.07;;
19879;SDS011;10102;50.828;4.416;2023-03-21T09:01:05;10.15;;;3.70;;
19879;SDS011;10102;50.828;4.416;2023-03-21T09:03:35;5.55;;;3.58;;
19879;SDS011;10102;50.828;4.416;2023-03-21T09:06:03;13.88;;;3.83;;
19879;SDS011;10102;50.828;4.416;2023-03-21T09:08:29;10.55;;;3.63;;
19879;SDS011;10102;50.828;4.416;2023-03-21T09:10:55;12.23;;;4.03;;
19879;SDS011;10102;50.828;4.416;2023-03-21T09:13:21;6.03;;;3.72;;
19879;SDS011;10102;50.828;4.416;2023-03-21T09:15:47;11.20;;;4.43;;
19879;SDS011;10102;50.828;4.416;2023-03-21T09:18:13;8.00;;;3.92;;
19879;SDS011;10102;50.828;4.416;2023-03-21T09:20:40;9.13;;;3.65;;
19879;SDS011;10102;50.828;4.416;2023-03-21T09:23:08;10.45;;;3.67;;
19879;SDS011;10102;50.828;4.416;2023-03-21T09:25:35;7.13;;;3.92;;
19879;SDS011;10102;50.828;4.416;2023-03-21T09:28:02;10.70;;;3.65;;
19879;SDS011;10102;50.828;4.416;2023-03-21T09:30:29;8.90;;;3.50;;
19879;SDS011;10102;50.828;4.416;2023-03-21T09:33:00;6.95;;;3.67;;
19879;SDS011;10102;50.828;4.416;2023-03-21T09:35:27;7.65;;;3.60;;
19879;SDS011;10102;50.828;4.416;2023-03-21T09:37:54;9.40;;;3.55;;
19879;SDS011;10102;50.828;4.416;2023-03-21T09:43:33;8.55;;;3.85;;
19879;SDS011;10102;50.828;4.416;2023-03-21T09:46:09;8.95;;;4.07;;
19879;SDS011;10102;50.828;4.416;2023-03-21T09:48:53;10.38;;;3.60;;
19879;SDS011;10102;50.828;4.416;2023-03-21T09:51:30;11.38;;;3.72;;
19879;SDS011;10102;50.828;4.416;2023-03-21T09:54:04;9.15;;;3.22;;
19879;SDS011;10102;50.828;4.416;2023-03-21T09:56:54;9.43;;;3.78;;
19879;SDS011;10102;50.828;4.416;2023-03-21T09:59:31;11.52;;;3.50;;
19879;SDS011;10102;50.828;4.416;2023-03-21T10:05:15;7.00;;;3.50;;
19879;SDS011;10102;50.828;4.416;2023-03-21T10:07:43;11.35;;;3.85;;
19879;SDS011;10102;50.828;4.416;2023-03-21T10:10:19;12.18;;;4.65;;
19879;SDS011;10102;50.828;4.416;2023-03-21T10:12:52;10.80;;;4.20;;
19879;SDS011;10102;50.828;4.416;2023-03-21T10:15:19;12.18;;;4.30;;
19879;SDS011;10102;50.828;4.416;2023-03-21T10:17:52;9.00;;;4.75;;
19879;SDS011;10102;50.828;4.416;2023-03-21T10:20:33;16.15;;;4.10;;
19879;SDS011;10102;50.828;4.416;2023-03-21T10:23:02;12.82;;;3.63;;
19879;SDS011;10102;50.828;4.416;2023-03-21T10:25:39;11.20;;;3.50;;
19879;SDS011;10102;50.828;4.416;2023-03-21T10:28:07;7.07;;;3.33;;
19879;SDS011;10102;50.828;4.416;2023-03-21T10:30:39;11.90;;;3.70;;
19879;SDS011;10102;50.828;4.416;2023-03-21T10:33:11;13.07;;;3.38;;
19879;SDS011;10102;50.828;4.416;2023-03-21T10:35:40;8.02;;;3.55;;
19879;SDS011;10102;50.828;4.416;2023-03-21T10:38:13;8.27;;;3.33;;
19879;SDS011;10102;50.828;4.416;2023-03-21T10:40:42;10.20;;;3.45;;
19879;SDS011;10102;50.828;4.416;2023-03-21T10:43:15;9.50;;;3.65;;
19879;SDS011;10102;50.828;4.416;2023-03-21T10:45:47;8.15;;;3.40;;
19879;SDS011;10102;50.828;4.416;2023-03-21T10:48:13;6.25;;;3.08;;
19879;SDS011;10102;50.828;4.416;2023-03-21T10:50:39;10.25;;;3.30;;
19879;SDS011;10102;50.828;4.416;2023-03-21T10:53:13;9.18;;;3.75;;
19879;SDS011;10102;50.828;4.416;2023-03-21T10:55:44;14.82;;;3.88;;
19879;SDS011;10102;50.828;4.416;2023-03-21T10:58:19;10.50;;;3.78;;
19879;SDS011;10102;50.828;4.416;2023-03-21T11:00:57;11.55;;;3.83;;
19879;SDS011;10102;50.828;4.416;2023-03-21T11:03:29;7.15;;;3.55;;
19879;SDS011;10102;50.828;4.416;2023-03-21T11:06:38;9.77;;;3.85;;
19879;SDS011;10102;50.828;4.416;2023-03-21T11:09:08;7.65;;;3.60;;
19879;SDS011;10102;50.828;4.416;2023-03-21T11:12:17;7.85;;;4.07;;
19879;SDS011;10102;50.828;4.416;2023-03-21T11:14:40;8.65;;;3.90;;
19879;SDS011;10102;50.828;4.416;2023-03-21T11:20:04;9.13;;;4.35;;
19879;SDS011;10102;50.828;4.416;2023-03-21T11:22:41;13.45;;;4.28;;
19879;SDS011;10102;50.828;4.416;2023-03-21T11:25:08;6.70;;;4.15;;
19879;SDS011;10102;50.828;4.416;2023-03-21T11:27:47;9.95;;;3.80;;
19879;SDS011;10102;50.828;4.416;2023-03-21T11:30:21;11.30;;;4.05;;
19879;SDS011;10102;50.828;4.416;2023-03-21T11:32:50;12.20;;;4.75;;
19879;SDS011;10102;50.828;4.416;2023-03-21T11:35:35;12.45;;;3.63;;
19879;SDS011;10102;50.828;4.416;2023-03-21T11:38:03;9.35;;;4.15;;
19879;SDS011;10102;50.828;4.416;2023-03-21T11:40:34;6.25;;;4.38;;
19879;SDS011;10102;50.828;4.416;2023-03-21T11:43:09;10.45;;;4.03;;
19879;SDS011;10102;50.828;4.416;2023-03-21T11:48:22;11.23;;;4.13;;
19879;SDS011;10102;50.828;4.416;2023-03-21T11:50:49;6.20;;;3.85;;
19879;SDS011;10102;50.828;4.416;2023-03-21T11:56:26;10.07;;;3.78;;
19879;SDS011;10102;50.828;4.416;2023-03-21T12:17:29;9.45;;;2.97;;
19879;SDS011;10102;50.828;4.416;2023-03-21T12:20:10;4.60;;;3.03;;
19879;SDS011;10102;50.828;4.416;2023-03-21T12:22:40;8.43;;;2.75;;
19879;SDS011;10102;50.828;4.416;2023-03-21T12:25:32;8.40;;;3.25;;
19879;SDS011;10102;50.828;4.416;2023-03-21T12:30:44;8.07;;;3.00;;
19879;SDS011;10102;50.828;4.416;2023-03-21T12:36:20;8.02;;;3.33;;
19879;SDS011;10102;50.828;4.416;2023-03-21T12:45:00;7.85;;;3.65;;
19879;SDS011;10102;50.828;4.416;2023-03-21T12:47:32;9.30;;;3.78;;
19879;SDS011;10102;50.828;4.416;2023-03-21T12:50:04;11.57;;;3.88;;
19879;SDS011;10102;50.828;4.416;2023-03-21T12:52:51;8.85;;;3.83;;
19879;SDS011;10102;50.828;4.416;2023-03-21T12:55:26;7.93;;;3.15;;
19879;SDS011;10102;50.828;4.416;2023-03-21T12:58:18;7.72;;;3.70;;
19879;SDS011;10102;50.828;4.416;2023-03-21T13:00:58;4.65;;;3.38;;
19879;SDS011;10102;50.828;4.416;2023-03-21T13:06:05;7.18;;;3.55;;
19879;SDS011;10102;50.828;4.416;2023-03-21T13:11:15;6.95;;;3.80;;
19879;SDS011;10102;50.828;4.416;2023-03-21T13:16:25;6.55;;;3.90;;
19879;SDS011;10102;50.828;4.416;2023-03-21T13:21:48;9.27;;;3.65;;
19879;SDS011;10102;50.828;4.416;2023-03-21T13:26:57;8.05;;;3.97;;
19879;SDS011;10102;50.828;4.416;2023-03-21T13:34:54;10.02;;;5.00;;
19879;SDS011;10102;50.828;4.416;2023-03-21T13:37:22;6.32;;;4.18;;
19879;SDS011;10102;50.828;4.416;2023-03-21T13:39:53;9.35;;;4.20;;
19879;SDS011;10102;50.828;4.416;2023-03-21T13:42:28;9.43;;;4.47;;
19879;SDS011;10102;50.828;4.416;2023-03-21T13:45:00;8.70;;;4.15;;
19879;SDS011;10102;50.828;4.416;2023-03-21T13:50:19;7.20;;;3.95;;
19879;SDS011;10102;50.828;4.416;2023-03-21T13:55:41;5.35;;;3.08;;
19879;SDS011;10102;50.828;4.416;2023-03-21T14:04:01;9.10;;;4.68;;
19879;SDS011;10102;50.828;4.416;2023-03-21T14:06:45;14.10;;;5.50;;
19879;SDS011;10102;50.828;4.416;2023-03-21T14:12:10;8.07;;;4.47;;
19879;SDS011;10102;50.828;4.416;2023-03-21T14:14:41;9.52;;;3.65;;
19879;SDS011;10102;50.828;4.416;2023-03-21T14:17:23;7.50;;;3.47;;
19879;SDS011;10102;50.828;4.416;2023-03-21T14:19:55;4.35;;;3.00;;
19879;SDS011;10102;50.828;4.416;2023-03-21T14:22:31;10.40;;;3.67;;
19879;SDS011;10102;50.828;4.416;2023-03-21T14:25:00;5.28;;;3.83;;
19879;SDS011;10102;50.828;4.416;2023-03-21T14:27:28;5.30;;;3.53;;
19879;SDS011;10102;50.828;4.416;2023-03-21T14:29:57;7.60;;;3.88;;
19879;SDS011;10102;50.828;4.416;2023-03-21T14:32:24;6.07;;;3.25;;
19879;SDS011;10102;50.828;4.416;2023-03-21T14:34:52;10.02;;;3.80;;
19879;SDS011;10102;50.828;4.416;2023-03-21T14:37:26;6.93;;;3.92;;
19879;SDS011;10102;50.828;4.416;2023-03-21T14:39:58;11.82;;;4.60;;
19879;SDS011;10102;50.828;4.416;2023-03-21T14:42:25;7.70;;;4.57;;
19879;SDS011;10102;50.828;4.416;2023-03-21T14:44:51;5.57;;;4.45;;
19879;SDS011;10102;50.828;4.416;2023-03-21T14:47:20;10.35;;;4.60;;
19879;SDS011;10102;50.828;4.416;2023-03-21T14:49:52;7.00;;;4.53;;
19879;SDS011;10102;50.828;4.416;2023-03-21T14:52:21;9.27;;;4.65;;
19879;SDS011;10102;50.828;4.416;2023-03-21T14:54:54;9.32;;;4.57;;
19879;SDS011;10102;50.828;4.416;2023-03-21T14:57:21;7.15;;;4.30;;
19879;SDS011;10102;50.828;4.416;2023-03-21T14:59:51;8.70;;;4.32;;
19879;SDS011;10102;50.828;4.416;2023-03-21T15:04:51;8.20;;;4.50;;
19879;SDS011;10102;50.828;4.416;2023-03-21T15:07:27;5.82;;;4.25;;
19879;SDS011;10102;50.828;4.416;2023-03-21T15:09:57;7.45;;;4.15;;
19879;SDS011;10102;50.828;4.416;2023-03-21T15:12:27;7.60;;;4.13;;
19879;SDS011;10102;50.828;4.416;2023-03-21T15:14:54;10.57;;;3.83;;
19879;SDS011;10102;50.828;4.416;2023-03-21T15:17:20;6.80;;;4.10;;
19879;SDS011;10102;50.828;4.416;2023-03-21T15:19:47;8.85;;;3.85;;
19879;SDS011;10102;50.828;4.416;2023-03-21T15:25:00;9.77;;;4.13;;
19879;SDS011;10102;50.828;4.416;2023-03-21T15:27:29;9.13;;;3.92;;
19879;SDS011;10102;50.828;4.416;2023-03-21T15:29:57;6.13;;;4.15;;
19879;SDS011;10102;50.828;4.416;2023-03-21T15:32:23;7.45;;;4.60;;
19879;SDS011;10102;50.828;4.416;2023-03-21T15:34:55;8.10;;;4.45;;
19879;SDS011;10102;50.828;4.416;2023-03-21T15:37:32;6.10;;;4.43;;
19879;SDS011;10102;50.828;4.416;2023-03-21T15:42:39;8.98;;;4.97;;
19879;SDS011;10102;50.828;4.416;2023-03-21T15:47:50;8.88;;;4.78;;
19879;SDS011;10102;50.828;4.416;2023-03-21T15:50:32;10.60;;;5.70;;
19879;SDS011;10102;50.828;4.416;2023-03-21T15:52:59;8.88;;;5.38;;
19879;SDS011;10102;50.828;4.416;2023-03-21T15:55:30;11.25;;;5.50;;
19879;SDS011;10102;50.828;4.416;2023-03-21T15:58:23;14.63;;;6.88;;
19879;SDS011;10102;50.828;4.416;2023-03-21T16:00:54;13.32;;;6.60;;
19879;SDS011;10102;50.828;4.416;2023-03-21T16:06:03;9.27;;;6.40;;
19879;SDS011;10102;50.828;4.416;2023-03-21T16:09:14;10.73;;;6.50;;
19879;SDS011;10102;50.828;4.416;2023-03-21T16:11:50;13.80;;;6.53;;
19879;SDS011;10102;50.828;4.416;2023-03-21T16:14:18;9.75;;;6.57;;
19879;SDS011;10102;50.828;4.416;2023-03-21T16:16:44;10.57;;;6.90;;
19879;SDS011;10102;50.828;4.416;2023-03-21T16:19:11;10.30;;;6.80;;
19879;SDS011;10102;50.828;4.416;2023-03-21T16:21:37;11.48;;;6.78;;
19879;SDS011;10102;50.828;4.416;2023-03-21T16:24:03;14.00;;;7.07;;
19879;SDS011;10102;50.828;4.416;2023-03-21T16:26:31;12.68;;;6.72;;
19879;SDS011;10102;50.828;4.416;2023-03-21T16:28:58;12.90;;;6.65;;
19879;SDS011;10102;50.828;4.416;2023-03-21T16:31:25;11.32;;;6.65;;
19879;SDS011;10102;50.828;4.416;2023-03-21T16:33:53;9.15;;;5.93;;
19879;SDS011;10102;50.828;4.416;2023-03-21T16:36:22;10.45;;;6.85;;
19879;SDS011;10102;50.828;4.416;2023-03-21T16:38:50;10.77;;;6.55;;
19879;SDS011;10102;50.828;4.416;2023-03-21T16:41:20;15.20;;;6.78;;
19879;SDS011;10102;50.828;4.416;2023-03-21T16:43:47;12.98;;;6.72;;
19879;SDS011;10102;50.828;4.416;2023-03-21T16:46:23;12.75;;;6.22;;
19879;SDS011;10102;50.828;4.416;2023-03-21T16:48:51;8.93;;;5.40;;
19879;SDS011;10102;50.828;4.416;2023-03-21T16:51:40;12.23;;;6.75;;
19879;SDS011;10102;50.828;4.416;2023-03-21T16:54:04;9.15;;;6.65;;
19879;SDS011;10102;50.828;4.416;2023-03-21T16:56:35;13.73;;;6.25;;